Time;durP1;ratioP1;P1;durP2;ratioP2;P2;SDS_P1;SDS_P2;PMS_P1;PMS_P2;Temp;Humidity;BMP_temperature;BMP_pressure;BME280_temperature;BME280_humidity;BME280_pressure;Samples;Min_cycle;Max_cycle;Signal;HPM_P1;HPM_P2
2022/09/26 00:02:22;;;;;;;14.27;13.37;;;13.10;54.10;;;;;;5009238;28;20416;-43
2022/09/26 00:04:47;;;;;;;14.27;13.47;;;13.10;54.10;;;;;;4991693;28;20178;-42
2022/09/26 00:07:13;;;;;;;14.30;13.40;;;13.10;54.10;;;;;;4992009;28;20177;-41
2022/09/26 00:09:39;;;;;;;14.30;13.40;;;13.10;54.10;;;;;;4991578;28;20181;-42
2022/09/26 00:12:06;;;;;;;14.37;13.50;;;13.10;54.20;;;;;;4992159;28;20705;-40
2022/09/26 00:14:32;;;;;;;13.57;12.77;;;13.10;54.10;;;;;;4992102;28;20539;-41
2022/09/26 00:16:58;;;;;;;14.00;13.20;;;13.20;54.20;;;;;;5009773;28;20748;-48
2022/09/26 00:19:24;;;;;;;13.33;12.60;;;13.10;53.60;;;;;;4993387;28;20691;-51
2022/09/26 00:21:50;;;;;;;13.27;12.67;;;13.10;53.80;;;;;;4991577;28;20300;-47
2022/09/26 00:24:16;;;;;;;13.90;13.10;;;13.00;54.00;;;;;;4993003;28;20455;-47
2022/09/26 00:26:42;;;;;;;13.57;12.53;;;13.00;54.00;;;;;;4993003;28;20420;-51
2022/09/26 00:29:10;;;;;;;13.53;12.83;;;13.00;54.00;;;;;;4993198;28;20416;-48
2022/09/26 00:31:43;;;;;;;12.83;12.13;;;12.90;54.00;;;;;;4992708;28;20511;-50
2022/09/26 00:34:11;;;;;;;13.87;13.17;;;13.00;54.00;;;;;;4992967;28;20428;-52
2022/09/26 00:36:37;;;;;;;14.43;13.50;;;12.90;54.00;;;;;;4992921;28;20978;-49
2022/09/26 00:39:03;;;;;;;14.63;13.63;;;12.90;54.00;;;;;;4993031;28;20566;-52
2022/09/26 00:41:28;;;;;;;15.60;14.50;;;13.00;54.00;;;;;;4992913;28;20248;-47
2022/09/26 00:43:55;;;;;;;15.30;14.40;;;13.00;54.10;;;;;;5010520;28;20173;-48
2022/09/26 00:46:39;;;;;;;13.77;13.07;;;13.00;54.10;;;;;;5010537;28;20201;-47
2022/09/26 00:49:19;;;;;;;12.80;12.00;;;12.90;54.00;;;;;;4992873;28;20420;-50
2022/09/26 00:51:59;;;;;;;13.77;12.90;;;13.00;54.00;;;;;;4992762;28;20435;-53
2022/09/26 00:54:27;;;;;;;14.23;13.43;;;13.20;53.00;;;;;;4993198;28;20423;-53
2022/09/26 00:56:55;;;;;;;14.10;13.27;;;13.40;51.70;;;;;;4992865;28;20419;-48
2022/09/26 00:59:25;;;;;;;15.13;14.27;;;13.50;50.80;;;;;;4992260;28;20951;-49
2022/09/26 01:01:53;;;;;;;13.33;12.53;;;13.60;49.80;;;;;;4992630;28;20472;-49
2022/09/26 01:04:20;;;;;;;14.40;13.60;;;13.70;48.80;;;;;;4992853;28;20416;-50
2022/09/26 01:06:45;;;;;;;14.97;14.07;;;13.60;48.30;;;;;;4992720;28;20428;-50
2022/09/26 01:09:13;;;;;;;14.70;13.80;;;13.50;48.60;;;;;;4992811;28;20411;-52
2022/09/26 01:11:40;;;;;;;14.10;13.37;;;13.30;49.30;;;;;;4992952;28;20184;-48
2022/09/26 01:14:09;;;;;;;14.13;13.23;;;13.20;49.70;;;;;;4992660;28;20451;-53
2022/09/26 01:16:37;;;;;;;13.33;12.53;;;13.00;49.90;;;;;;4992752;28;20434;-51
2022/09/26 01:19:31;;;;;;;15.40;14.10;;;13.10;50.70;;;;;;4992656;28;21039;-53
2022/09/26 01:22:09;;;;;;;13.10;12.23;;;13.10;49.60;;;;;;4969975;28;20566;-50
2022/09/26 01:25:18;;;;;;;14.37;13.57;;;13.10;50.00;;;;;;4992301;28;20506;-48
2022/09/26 01:28:09;;;;;;;14.87;14.13;;;13.20;49.60;;;;;;4992497;28;20478;-51
2022/09/26 01:30:50;;;;;;;14.87;14.07;;;13.40;48.80;;;;;;4992494;28;20409;-51
2022/09/26 01:33:48;;;;;;;13.90;13.20;;;13.50;47.90;;;;;;5011325;28;20415;-49
2022/09/26 01:36:35;;;;;;;15.00;14.00;;;13.50;47.50;;;;;;4995675;28;20443;-51
2022/09/26 01:39:04;;;;;;;14.37;13.67;;;13.60;46.90;;;;;;4995660;28;21111;-48
2022/09/26 01:41:57;;;;;;;14.70;13.93;;;13.60;46.40;;;;;;4995665;28;20456;-49
2022/09/26 01:44:34;;;;;;;13.50;12.80;;;13.50;46.40;;;;;;4995023;28;20776;-42
2022/09/26 01:47:21;;;;;;;15.47;14.30;;;13.50;47.00;;;;;;5011815;28;20856;-43
2022/09/26 01:50:01;;;;;;;15.30;14.30;;;13.40;46.70;;;;;;4994287;28;20779;-42
2022/09/26 01:52:38;;;;;;;16.07;14.90;;;13.10;47.20;;;;;;4993911;28;20917;-46
2022/09/26 01:55:38;;;;;;;15.60;14.80;;;13.00;47.80;;;;;;4993857;28;20420;-43
2022/09/26 01:58:24;;;;;;;14.90;14.10;;;12.80;48.70;;;;;;4962765;28;21023;-46
2022/09/26 02:00:51;;;;;;;16.37;15.10;;;12.70;48.90;;;;;;4993734;28;20471;-46
2022/09/26 02:03:21;;;;;;;15.23;14.37;;;12.70;49.70;;;;;;4993833;28;20412;-43
2022/09/26 02:05:53;;;;;;;15.37;14.47;;;12.70;49.20;;;;;;4994005;28;20780;-44
2022/09/26 02:08:23;;;;;;;14.83;14.03;;;12.60;48.90;;;;;;4993809;28;20875;-46
2022/09/26 02:10:54;;;;;;;15.80;14.70;;;12.50;49.60;;;;;;4994171;28;20905;-42
2022/09/26 02:13:25;;;;;;;15.80;14.67;;;12.50;50.00;;;;;;4994564;28;20424;-41
2022/09/26 02:15:57;;;;;;;15.57;14.80;;;12.40;50.00;;;;;;4993572;28;20781;-41
2022/09/26 02:18:30;;;;;;;15.80;14.60;;;12.40;50.20;;;;;;4993553;28;20412;-41
2022/09/26 02:21:01;;;;;;;14.23;13.53;;;12.50;50.30;;;;;;4993969;28;20830;-40
2022/09/26 02:23:27;;;;;;;15.20;14.30;;;12.60;50.60;;;;;;4993988;28;20474;-41
2022/09/26 02:25:52;;;;;;;13.87;13.07;;;12.80;49.70;;;;;;4992992;28;20439;-41
2022/09/26 02:28:18;;;;;;;14.80;14.00;;;12.90;48.30;;;;;;4994150;28;20235;-41
2022/09/26 02:30:46;;;;;;;15.13;14.23;;;12.90;47.20;;;;;;4993452;28;20424;-40
2022/09/26 02:33:12;;;;;;;14.77;13.87;;;13.00;46.80;;;;;;4993162;28;20422;-41
2022/09/26 02:35:53;;;;;;;13.63;12.63;;;13.00;47.60;;;;;;4992896;28;20420;-41
2022/09/26 02:38:19;;;;;;;14.23;13.53;;;13.10;47.00;;;;;;4993861;28;20185;-44
2022/09/26 02:41:09;;;;;;;13.37;12.60;;;13.20;46.00;;;;;;4993017;28;20486;-40
2022/09/26 02:44:12;;;;;;;13.83;13.13;;;13.30;45.30;;;;;;4993085;28;20456;-40
2022/09/26 02:46:55;;;;;;;15.20;14.40;;;13.20;44.40;;;;;;4993252;28;20443;-42
2022/09/26 02:49:26;;;;;;;14.73;13.80;;;13.00;45.50;;;;;;4993098;28;20412;-42
2022/09/26 02:52:16;;;;;;;14.33;13.53;;;13.10;45.60;;;;;;4993190;28;20516;-40
2022/09/26 02:55:10;;;;;;;13.90;13.10;;;13.20;45.20;;;;;;4993246;28;20878;-43
2022/09/26 02:57:53;;;;;;;14.70;13.80;;;13.10;44.40;;;;;;4992236;28;20428;-43
2022/09/26 03:00:27;;;;;;;15.17;14.27;;;13.10;45.10;;;;;;4992583;28;20466;-40
2022/09/26 03:03:28;;;;;;;13.83;12.90;;;13.10;44.30;;;;;;4992739;28;20419;-41
2022/09/26 03:05:57;;;;;;;14.70;13.80;;;13.10;44.40;;;;;;4933562;29;20527;-44
2022/09/26 03:08:29;;;;;;;13.80;13.00;;;13.20;44.40;;;;;;4982214;28;20444;-44
2022/09/26 03:10:58;;;;;;;14.00;13.23;;;13.10;44.30;;;;;;4993454;28;20431;-44
2022/09/26 03:13:26;;;;;;;13.83;13.03;;;13.00;44.20;;;;;;4992829;28;20513;-44
2022/09/26 03:15:55;;;;;;;13.93;13.27;;;13.00;44.30;;;;;;4992287;28;20508;-43
2022/09/26 03:18:26;;;;;;;13.83;13.23;;;12.90;44.20;;;;;;4993359;28;20435;-42
2022/09/26 03:20:53;;;;;;;14.00;13.20;;;12.80;44.90;;;;;;4992386;28;20495;-47
2022/09/26 03:23:24;;;;;;;12.53;12.03;;;12.70;45.20;;;;;;4992928;28;20413;-41
2022/09/26 03:26:02;;;;;;;13.90;13.20;;;12.50;45.50;;;;;;4992738;28;20468;-41
2022/09/26 03:28:28;;;;;;;12.47;11.93;;;12.50;46.10;;;;;;4992631;28;20427;-42
2022/09/26 03:30:53;;;;;;;11.87;11.37;;;12.50;46.10;;;;;;4992135;28;20424;-44
2022/09/26 03:33:19;;;;;;;12.77;12.17;;;12.50;46.00;;;;;;4992331;28;20181;-43
2022/09/26 03:36:25;;;;;;;12.47;11.87;;;12.50;45.90;;;;;;4991763;28;20260;-41
2022/09/26 03:39:03;;;;;;;11.67;11.20;;;12.50;45.30;;;;;;4991656;28;20637;-45
2022/09/26 03:48:14;;;;;;;12.03;11.43;;;13.00;44.40;;;;;;5011204;28;20488;-51
2022/09/26 03:50:40;;;;;;;12.37;11.77;;;13.20;43.80;;;;;;4993340;28;20967;-51
2022/09/26 03:53:06;;;;;;;12.43;11.93;;;13.30;43.10;;;;;;4993745;28;20424;-50
2022/09/26 03:55:32;;;;;;;12.97;12.37;;;13.20;41.90;;;;;;4993370;28;20177;-53
2022/09/26 03:57:59;;;;;;;12.80;12.10;;;13.00;42.50;;;;;;4992650;28;20567;-53
2022/09/26 04:00:25;;;;;;;12.33;11.73;;;12.90;43.00;;;;;;4992096;28;20211;-46
2022/09/26 04:02:50;;;;;;;12.30;11.60;;;12.60;43.90;;;;;;4991499;28;20417;-47
2022/09/26 04:05:16;;;;;;;12.97;12.37;;;12.50;43.80;;;;;;4992517;28;20268;-42
2022/09/26 04:07:43;;;;;;;12.80;12.27;;;12.50;43.80;;;;;;4991998;28;20288;-44
2022/09/26 04:10:12;;;;;;;13.00;12.50;;;12.50;43.80;;;;;;4991864;28;20181;-40
2022/09/26 04:12:39;;;;;;;13.40;12.70;;;12.40;43.90;;;;;;4991010;28;20853;-41
2022/09/26 04:15:06;;;;;;;12.93;12.27;;;12.30;44.70;;;;;;4991267;28;20448;-40
2022/09/26 04:17:32;;;;;;;12.80;12.20;;;12.30;44.60;;;;;;4991479;28;20732;-42
2022/09/26 04:19:58;;;;;;;12.20;11.50;;;12.30;44.50;;;;;;4991500;28;20511;-43
2022/09/26 04:22:24;;;;;;;12.40;11.80;;;12.20;44.50;;;;;;4991571;28;20181;-41
2022/09/26 04:24:50;;;;;;;12.90;12.30;;;12.20;44.30;;;;;;4990913;28;20438;-40
2022/09/26 04:27:17;;;;;;;12.87;12.37;;;12.20;44.60;;;;;;4992130;28;20205;-43
2022/09/26 04:29:43;;;;;;;14.27;13.17;;;12.20;45.00;;;;;;4992621;28;20424;-42
2022/09/26 04:32:09;;;;;;;13.70;12.93;;;12.20;45.30;;;;;;4991552;28;20416;-44
2022/09/26 04:34:37;;;;;;;11.83;11.23;;;12.20;43.90;;;;;;4992288;28;20412;-43
2022/09/26 04:37:04;;;;;;;12.43;11.80;;;12.40;43.70;;;;;;4991131;28;20490;-41
2022/09/26 04:39:29;;;;;;;12.00;11.40;;;12.50;43.80;;;;;;4991685;28;20470;-43
2022/09/26 04:41:55;;;;;;;12.13;11.47;;;12.70;43.10;;;;;;4990566;28;20511;-41
2022/09/26 04:44:20;;;;;;;12.70;12.10;;;12.90;42.60;;;;;;4991803;28;20173;-41
2022/09/26 04:46:46;;;;;;;12.20;11.50;;;13.00;42.00;;;;;;4991289;28;20224;-41
2022/09/26 04:49:12;;;;;;;11.50;11.00;;;13.10;41.50;;;;;;4991670;28;20571;-40
2022/09/26 04:51:38;;;;;;;12.53;11.80;;;13.20;40.90;;;;;;4991801;28;20472;-40
2022/09/26 04:54:03;;;;;;;12.33;11.70;;;13.10;40.80;;;;;;4991654;28;20177;-46
2022/09/26 04:56:29;;;;;;;13.30;12.30;;;13.10;40.90;;;;;;4991568;28;20552;-44
2022/09/26 04:58:56;;;;;;;11.93;11.43;;;13.20;40.50;;;;;;4990647;28;20191;-45
2022/09/26 05:01:22;;;;;;;12.07;11.50;;;13.30;40.10;;;;;;4991423;28;20232;-45
2022/09/26 05:03:48;;;;;;;11.80;11.30;;;13.30;39.90;;;;;;4991315;28;20728;-43
2022/09/26 05:06:16;;;;;;;12.97;12.23;;;13.40;39.50;;;;;;4991297;28;20417;-40
2022/09/26 05:08:45;;;;;;;12.53;12.13;;;13.20;39.30;;;;;;4993455;28;20170;-40
2022/09/26 05:11:11;;;;;;;13.40;12.70;;;13.10;40.00;;;;;;4994763;28;20773;-40
2022/09/26 05:13:37;;;;;;;13.33;12.70;;;12.90;40.30;;;;;;4994486;28;20420;-41
2022/09/26 05:16:05;;;;;;;13.17;12.57;;;12.70;41.10;;;;;;4995289;28;20420;-42
2022/09/26 05:18:31;;;;;;;12.70;12.00;;;12.70;41.90;;;;;;4994994;28;20840;-41
2022/09/26 05:20:57;;;;;;;12.27;11.67;;;12.80;41.70;;;;;;4994717;28;20593;-46
2022/09/26 05:26:22;;;;;;;12.80;12.23;;;13.00;40.70;;;;;;5012208;28;20659;-40
2022/09/26 05:29:00;;;;;;;14.30;13.60;;;13.00;41.00;;;;;;5011610;28;20414;-44
2022/09/26 05:31:28;;;;;;;14.00;13.20;;;13.00;39.70;;;;;;4994846;28;20411;-43
2022/09/26 05:33:56;;;;;;;13.43;12.40;;;12.70;40.60;;;;;;4994348;28;20478;-47
2022/09/26 05:36:23;;;;;;;14.60;13.70;;;12.40;41.60;;;;;;4994841;28;20427;-40
2022/09/26 05:38:49;;;;;;;13.60;12.70;;;12.30;42.10;;;;;;4995024;28;20456;-41
2022/09/26 05:41:15;;;;;;;13.63;12.93;;;12.30;42.30;;;;;;4993689;28;20507;-41
2022/09/26 05:43:41;;;;;;;13.93;13.23;;;12.30;42.40;;;;;;4994702;28;20408;-43
2022/09/26 05:46:09;;;;;;;13.70;13.10;;;12.50;42.80;;;;;;4995615;28;20587;-45
2022/09/26 05:48:36;;;;;;;16.80;15.60;;;12.60;42.20;;;;;;4994470;28;20170;-47
2022/09/26 05:51:10;;;;;;;15.00;14.20;;;12.80;41.60;;;;;;4993992;28;20780;-43
2022/09/26 05:53:36;;;;;;;13.70;12.80;;;12.70;40.80;;;;;;4993848;28;20454;-45
2022/09/26 05:56:03;;;;;;;14.27;13.57;;;12.60;40.50;;;;;;5011453;28;20408;-43
2022/09/26 05:58:33;;;;;;;14.73;13.93;;;12.70;40.50;;;;;;4994331;28;20420;-40
2022/09/26 06:01:08;;;;;;;15.93;14.90;;;12.60;40.80;;;;;;4994510;28;20464;-40
2022/09/26 06:03:34;;;;;;;15.60;14.87;;;12.50;41.70;;;;;;5011414;28;20404;-41
2022/09/26 06:06:07;;;;;;;14.63;14.00;;;12.40;41.60;;;;;;4994477;28;20846;-41
2022/09/26 06:08:34;;;;;;;15.27;13.83;;;12.50;41.80;;;;;;4993999;28;20460;-40
2022/09/26 06:11:08;;;;;;;14.63;13.93;;;12.50;41.40;;;;;;4993719;28;20455;-41
2022/09/26 06:13:35;;;;;;;14.27;13.37;;;12.50;41.50;;;;;;4994355;28;20420;-44
2022/09/26 06:16:06;;;;;;;13.67;12.87;;;12.60;41.60;;;;;;4994087;28;21020;-41
2022/09/26 06:18:36;;;;;;;14.60;13.70;;;12.70;41.90;;;;;;4993608;28;20885;-42
2022/09/26 06:21:02;;;;;;;13.00;12.40;;;12.80;41.80;;;;;;4993177;28;20694;-43
2022/09/26 06:23:29;;;;;;;13.77;13.17;;;12.90;41.00;;;;;;4994231;28;20463;-41
2022/09/26 06:25:54;;;;;;;13.23;12.63;;;13.00;41.40;;;;;;4993496;28;20910;-44
2022/09/26 06:28:20;;;;;;;12.73;12.13;;;13.10;40.30;;;;;;4993183;28;20412;-40
2022/09/26 06:30:45;;;;;;;13.70;12.73;;;12.90;40.10;;;;;;4994146;28;20191;-42
2022/09/26 06:33:11;;;;;;;13.90;13.10;;;12.80;40.20;;;;;;4994297;28;20615;-43
2022/09/26 06:35:37;;;;;;;12.73;12.13;;;12.70;41.60;;;;;;4994265;28;20220;-48
2022/09/26 06:38:04;;;;;;;14.33;13.43;;;12.90;41.10;;;;;;4994271;28;20718;-51
2022/09/26 06:40:30;;;;;;;12.77;12.20;;;12.80;40.60;;;;;;4994709;28;20230;-48
2022/09/26 06:42:56;;;;;;;12.77;12.10;;;12.90;40.50;;;;;;4994617;28;20404;-52
2022/09/26 06:45:22;;;;;;;13.20;12.50;;;12.70;41.00;;;;;;4995100;28;20835;-47
2022/09/26 06:47:48;;;;;;;13.27;12.43;;;12.80;40.70;;;;;;4994351;28;20196;-49
2022/09/26 06:50:15;;;;;;;12.83;12.20;;;12.80;41.20;;;;;;4994946;28;20420;-49
2022/09/26 06:52:42;;;;;;;12.90;12.33;;;12.90;40.80;;;;;;4994286;28;20189;-49
2022/09/26 06:55:09;;;;;;;12.33;11.83;;;12.90;40.50;;;;;;4994683;28;20420;-50
2022/09/26 06:57:38;;;;;;;12.50;11.80;;;12.80;41.30;;;;;;4994643;28;20503;-51
2022/09/26 07:00:05;;;;;;;12.53;11.73;;;12.70;41.70;;;;;;4994366;28;20420;-50
2022/09/26 07:02:31;;;;;;;12.90;12.30;;;12.70;42.00;;;;;;4994172;28;20416;-49
2022/09/26 07:04:57;;;;;;;12.00;11.30;;;12.70;41.90;;;;;;4994339;28;20503;-47
2022/09/26 07:07:22;;;;;;;12.80;11.77;;;12.70;42.00;;;;;;4994346;28;20499;-50
2022/09/26 07:09:48;;;;;;;12.47;11.77;;;12.70;42.50;;;;;;4994167;28;20549;-50
2022/09/26 07:12:14;;;;;;;12.50;11.80;;;12.80;42.00;;;;;;4994478;28;20634;-53
2022/09/26 07:14:40;;;;;;;11.00;10.50;;;12.80;42.00;;;;;;4993385;28;20188;-42
2022/09/26 07:17:06;;;;;;;19.00;17.80;;;12.80;41.70;;;;;;4992980;28;20173;-41
2022/09/26 07:19:31;;;;;;;11.40;10.90;;;12.80;41.80;;;;;;4992601;28;20431;-43
2022/09/26 07:21:57;;;;;;;10.90;10.40;;;12.80;41.70;;;;;;4992581;28;20205;-41
2022/09/26 07:24:22;;;;;;;10.93;10.33;;;12.80;41.70;;;;;;4993014;28;20194;-42
2022/09/26 07:26:48;;;;;;;12.47;11.60;;;12.80;40.90;;;;;;4992283;28;20725;-41
2022/09/26 07:29:14;;;;;;;11.17;10.57;;;12.80;41.20;;;;;;4993009;28;20187;-44
2022/09/26 07:31:39;;;;;;;10.87;10.17;;;12.90;41.20;;;;;;5009972;28;20185;-46
2022/09/26 07:34:06;;;;;;;10.00;9.50;;;13.00;41.10;;;;;;4992445;28;20177;-48
2022/09/26 07:36:32;;;;;;;10.73;10.23;;;13.00;41.10;;;;;;4992194;28;20215;-45
2022/09/26 07:38:58;;;;;;;11.30;10.60;;;13.00;41.20;;;;;;4991821;28;20912;-45
2022/09/26 07:41:23;;;;;;;11.60;10.90;;;13.00;40.80;;;;;;4992502;28;20212;-43
2022/09/26 07:43:49;;;;;;;11.27;10.67;;;13.10;41.20;;;;;;4992324;28;20679;-41
2022/09/26 07:51:43;;;;;;;10.57;10.07;;;13.30;39.90;;;;;;5010051;28;20439;-46
2022/09/26 07:54:09;;;;;;;9.63;9.23;;;13.20;40.80;;;;;;4992006;28;20909;-40
2022/09/26 07:56:34;;;;;;;11.00;10.37;;;13.10;40.20;;;;;;4991940;28;20917;-41
2022/09/26 07:59:04;;;;;;;10.13;9.63;;;13.20;39.80;;;;;;4991532;28;20311;-45
2022/09/26 08:01:30;;;;;;;10.30;9.90;;;13.20;40.00;;;;;;4990863;28;20213;-43
2022/09/26 08:03:57;;;;;;;10.00;9.60;;;13.20;39.90;;;;;;4991172;28;20424;-43
2022/09/26 08:06:24;;;;;;;10.20;9.70;;;13.20;39.40;;;;;;4991525;28;20875;-41
2022/09/26 08:08:57;;;;;;;9.40;9.00;;;13.30;39.50;;;;;;4991555;28;20444;-46
2022/09/26 08:11:23;;;;;;;10.20;9.70;;;13.30;39.80;;;;;;4991841;28;20482;-43
2022/09/26 08:13:48;;;;;;;9.10;8.50;;;13.30;39.80;;;;;;4991495;28;20416;-44
2022/09/26 08:16:19;;;;;;;10.47;10.07;;;13.30;39.40;;;;;;5010117;28;20415;-51
2022/09/26 08:18:45;;;;;;;9.87;9.47;;;13.30;39.40;;;;;;4993230;28;20361;-48
2022/09/26 08:21:11;;;;;;;10.07;9.50;;;13.30;39.50;;;;;;4992838;28;20831;-47
2022/09/26 08:23:36;;;;;;;10.23;9.83;;;13.40;39.20;;;;;;4993315;28;20443;-51
2022/09/26 08:26:04;;;;;;;10.00;9.50;;;13.50;39.20;;;;;;4992337;28;20199;-47
2022/09/26 08:28:29;;;;;;;10.10;9.63;;;13.40;39.60;;;;;;4991030;28;20185;-50
2022/09/26 08:31:03;;;;;;;9.13;8.73;;;13.40;39.20;;;;;;4993224;28;20439;-47
2022/09/26 08:33:33;;;;;;;10.57;9.80;;;13.50;39.40;;;;;;4992691;28;20263;-51
2022/09/26 08:36:10;;;;;;;9.67;9.27;;;13.60;39.40;;;;;;4993076;28;20428;-49
2022/09/26 08:38:37;;;;;;;10.00;9.50;;;13.60;38.90;;;;;;4992838;28;20417;-49
2022/09/26 08:41:31;;;;;;;10.83;10.13;;;13.60;38.70;;;;;;4993003;28;20995;-53
2022/09/26 08:44:25;;;;;;;10.47;9.97;;;13.70;37.50;;;;;;4995658;28;20431;-50
2022/09/26 08:47:03;;;;;;;10.17;9.57;;;13.90;38.00;;;;;;4997247;28;20470;-48
2022/09/26 08:49:38;;;;;;;8.97;8.57;;;14.00;36.90;;;;;;4996389;28;20915;-50
2022/09/26 08:52:21;;;;;;;9.30;8.90;;;14.00;36.70;;;;;;4995875;28;20416;-46
2022/09/26 08:54:48;;;;;;;10.30;9.80;;;14.10;35.10;;;;;;4994606;28;20474;-44
2022/09/26 08:57:30;;;;;;;9.40;9.00;;;14.10;35.10;;;;;;4995126;28;20416;-41
2022/09/26 08:59:56;;;;;;;9.00;8.50;;;14.10;35.10;;;;;;4995146;28;20428;-43
2022/09/26 09:02:36;;;;;;;10.20;9.70;;;14.30;35.30;;;;;;4995541;28;20784;-41
2022/09/26 09:05:02;;;;;;;10.20;9.53;;;14.50;33.60;;;;;;4994556;28;20498;-41
2022/09/26 09:07:28;;;;;;;10.07;9.57;;;14.80;31.40;;;;;;5012577;28;20795;-43
2022/09/26 09:10:04;;;;;;;10.10;9.60;;;15.00;31.10;;;;;;4994563;28;20420;-46
2022/09/26 09:12:38;;;;;;;9.93;9.23;;;15.20;30.90;;;;;;4994875;28;20419;-41
2022/09/26 09:15:20;;;;;;;9.33;8.93;;;15.40;30.30;;;;;;4995420;28;20787;-40
2022/09/26 09:17:53;;;;;;;9.17;8.47;;;15.60;28.30;;;;;;4994388;28;21139;-45
2022/09/26 09:20:46;;;;;;;9.93;9.07;;;15.70;27.90;;;;;;4995205;28;21157;-42
2022/09/26 09:23:18;;;;;;;9.97;9.27;;;15.80;28.20;;;;;;4994716;28;20495;-46
2022/09/26 09:25:47;;;;;;;8.30;8.00;;;15.70;27.60;;;;;;4994762;28;20436;-45
2022/09/26 09:28:31;;;;;;;9.80;9.40;;;15.70;28.60;;;;;;4993999;28;20448;-41
2022/09/26 09:31:00;;;;;;;9.93;9.43;;;15.80;27.80;;;;;;4994096;28;20408;-44
2022/09/26 09:33:43;;;;;;;8.83;8.43;;;15.90;28.70;;;;;;4994130;28;20431;-43
2022/09/26 09:36:40;;;;;;;8.67;8.27;;;16.20;27.80;;;;;;4995952;28;20400;-50
2022/09/26 09:39:08;;;;;;;9.57;8.77;;;16.20;27.40;;;;;;4995605;28;20640;-50
2022/09/26 09:41:37;;;;;;;8.83;8.53;;;16.20;27.40;;;;;;4995667;28;20463;-47
2022/09/26 09:44:10;;;;;;;10.07;9.60;;;16.30;27.50;;;;;;4995966;28;20563;-49
2022/09/26 09:46:42;;;;;;;9.40;9.10;;;16.30;27.50;;;;;;4995673;28;20407;-46
2022/09/26 09:49:08;;;;;;;11.37;8.80;;;16.30;26.90;;;;;;4995539;28;20417;-47
2022/09/26 09:51:42;;;;;;;9.80;9.50;;;16.20;27.00;;;;;;4993909;28;20516;-43
2022/09/26 09:54:36;;;;;;;9.67;9.30;;;16.10;26.10;;;;;;4992642;28;20427;-48
2022/09/26 09:57:29;;;;;;;9.97;9.57;;;16.10;26.00;;;;;;4993761;28;20474;-41
2022/09/26 09:59:58;;;;;;;9.70;9.30;;;16.20;25.80;;;;;;5026336;28;20424;-43
2022/09/26 10:02:58;;;;;;;10.57;10.07;;;16.00;26.90;;;;;;4994187;28;20443;-42
2022/09/26 10:05:38;;;;;;;10.13;9.63;;;16.10;27.40;;;;;;4993177;28;20411;-40
2022/09/26 10:08:21;;;;;;;9.60;9.20;;;16.10;27.10;;;;;;4993392;28;20404;-44
2022/09/26 10:11:07;;;;;;;9.03;8.63;;;16.10;25.60;;;;;;4993340;28;20420;-40
2022/09/26 10:13:34;;;;;;;9.53;9.10;;;16.00;25.00;;;;;;4993302;28;20505;-44
2022/09/26 10:16:03;;;;;;;9.47;9.10;;;15.80;24.40;;;;;;4993213;28;20408;-41
2022/09/26 10:18:30;;;;;;;9.67;9.27;;;15.70;24.90;;;;;;4992936;28;20412;-45
2022/09/26 10:21:07;;;;;;;8.93;8.53;;;15.70;25.40;;;;;;4993335;28;20464;-43
2022/09/26 10:23:38;;;;;;;9.90;9.40;;;15.70;25.20;;;;;;4992701;28;20422;-43
2022/09/26 10:26:09;;;;;;;9.40;9.10;;;15.60;25.30;;;;;;4993034;28;20474;-39
2022/09/26 10:28:46;;;;;;;8.90;8.50;;;15.70;24.70;;;;;;4993071;28;20773;-41
2022/09/26 10:31:29;;;;;;;8.80;8.40;;;15.80;24.10;;;;;;4992707;28;20919;-41
2022/09/26 10:33:59;;;;;;;8.87;8.57;;;16.00;24.30;;;;;;4992565;28;20429;-45
2022/09/26 10:36:30;;;;;;;9.77;9.27;;;16.10;24.40;;;;;;4977099;28;20983;-47
2022/09/26 10:41:45;;;;;;;9.30;8.77;;;16.30;23.80;;;;;;5010652;28;20471;-42
2022/09/26 10:44:24;;;;;;;9.03;8.63;;;16.60;23.30;;;;;;4992769;28;20420;-42
2022/09/26 10:46:55;;;;;;;8.57;8.27;;;16.60;23.60;;;;;;4993199;28;20424;-41
2022/09/26 10:49:26;;;;;;;8.97;8.57;;;16.50;22.60;;;;;;4992258;28;20435;-46
2022/09/26 10:52:26;;;;;;;8.63;8.33;;;16.30;21.40;;;;;;4992628;28;20432;-43
2022/09/26 10:55:05;;;;;;;9.27;8.80;;;16.20;20.90;;;;;;4988753;28;20447;-47
2022/09/26 10:57:49;;;;;;;9.50;9.00;;;16.30;21.00;;;;;;4994058;28;20797;-50
2022/09/26 11:00:23;;;;;;;8.50;8.10;;;16.30;20.90;;;;;;4994266;28;20800;-52
2022/09/26 11:02:51;;;;;;;8.10;7.80;;;16.20;21.10;;;;;;4994507;28;20443;-51
2022/09/26 11:08:09;;;;;;;8.53;8.23;;;16.20;21.40;;;;;;5012569;28;20416;-47
2022/09/26 11:10:40;;;;;;;9.17;8.87;;;16.20;21.90;;;;;;4994160;28;20901;-51
2022/09/26 11:14:02;;;;;;;9.20;8.83;;;16.20;21.80;;;;;;4994199;28;20428;-52
2022/09/26 11:16:47;;;;;;;9.40;8.90;;;16.20;24.10;;;;;;4991374;28;20448;-47
2022/09/26 11:19:38;;;;;;;8.80;8.57;;;15.90;23.70;;;;;;4993955;28;20428;-49
2022/09/26 11:22:08;;;;;;;9.20;8.80;;;15.80;23.20;;;;;;4994039;28;20468;-47
2022/09/26 11:24:45;;;;;;;8.90;8.60;;;15.70;24.00;;;;;;4994124;28;20557;-46
2022/09/26 11:27:42;;;;;;;8.97;8.67;;;15.70;24.50;;;;;;4994202;28;20499;-49
2022/09/26 11:30:10;;;;;;;9.10;8.80;;;15.80;24.10;;;;;;5026894;28;20474;-50
2022/09/26 11:32:42;;;;;;;9.00;8.70;;;16.00;24.50;;;;;;4993641;28;20920;-53
2022/09/26 11:35:28;;;;;;;8.67;8.23;;;16.10;23.90;;;;;;4993934;28;20975;-47
2022/09/26 11:38:02;;;;;;;9.00;8.70;;;16.20;22.60;;;;;;4993970;28;20416;-50
2022/09/26 11:40:43;;;;;;;8.90;8.60;;;16.20;22.30;;;;;;4993845;28;20839;-50
2022/09/26 11:43:12;;;;;;;8.37;8.03;;;16.30;20.60;;;;;;4993786;28;20416;-48
2022/09/26 11:46:15;;;;;;;8.50;8.20;;;16.30;20.60;;;;;;4993552;28;20413;-46
2022/09/26 11:48:53;;;;;;;9.30;8.97;;;16.50;20.60;;;;;;4992246;28;20912;-42
2022/09/26 11:51:22;;;;;;;8.93;8.63;;;16.60;21.60;;;;;;4992257;28;21219;-40
2022/09/26 11:54:09;;;;;;;8.83;8.53;;;16.40;22.50;;;;;;4992004;28;20423;-43
2022/09/26 11:56:38;;;;;;;9.30;9.00;;;16.40;22.70;;;;;;4992261;28;21062;-41
2022/09/26 11:59:54;;;;;;;8.90;8.50;;;16.30;22.60;;;;;;4992027;28;20424;-42
2022/09/26 12:02:54;;;;;;;9.00;8.43;;;16.30;23.10;;;;;;4914141;29;20558;-43
2022/09/26 12:05:43;;;;;;;8.93;8.63;;;16.30;23.00;;;;;;4991877;28;20935;-43
2022/09/26 12:08:34;;;;;;;8.47;8.27;;;16.00;25.70;;;;;;4991937;28;20416;-43
2022/09/26 12:11:15;;;;;;;8.60;8.40;;;15.50;25.30;;;;;;4991451;28;20483;-42
2022/09/26 12:13:53;;;;;;;8.80;8.50;;;15.30;26.80;;;;;;4991796;28;20489;-43
2022/09/26 12:17:02;;;;;;;8.70;8.47;;;15.30;28.80;;;;;;4992002;28;20478;-41
2022/09/26 12:19:37;;;;;;;9.60;9.20;;;15.20;29.40;;;;;;5023916;28;20421;-43
2022/09/26 12:22:30;;;;;;;8.30;8.07;;;15.10;29.90;;;;;;4991829;28;20475;-41
2022/09/26 12:25:06;;;;;;;8.90;8.60;;;15.00;29.70;;;;;;4991249;28;20440;-45
2022/09/26 12:28:09;;;;;;;8.33;8.13;;;15.00;30.00;;;;;;4991301;28;20447;-44
2022/09/26 12:30:53;;;;;;;8.70;8.30;;;15.00;29.90;;;;;;4975550;28;20515;-42
2022/09/26 12:33:27;;;;;;;9.00;8.70;;;15.20;29.80;;;;;;5024592;28;20931;-43
2022/09/26 12:36:06;;;;;;;8.63;8.33;;;15.40;28.70;;;;;;4991372;28;20994;-41
2022/09/26 12:38:53;;;;;;;8.10;7.90;;;15.50;27.60;;;;;;4992144;28;20431;-41
2022/09/26 12:41:28;;;;;;;8.67;8.27;;;15.70;27.10;;;;;;4990745;28;20475;-45
2022/09/26 12:44:12;;;;;;;8.73;8.40;;;15.90;26.60;;;;;;4992538;28;20412;-45
2022/09/26 12:46:59;;;;;;;8.87;8.57;;;16.20;25.30;;;;;;4992026;28;20435;-40
2022/09/26 12:49:28;;;;;;;8.17;7.97;;;16.30;24.50;;;;;;4990838;28;20677;-43
2022/09/26 12:52:16;;;;;;;8.80;8.50;;;16.30;24.10;;;;;;4991772;28;20419;-45
2022/09/26 12:55:21;;;;;;;8.27;7.97;;;16.30;24.10;;;;;;4992269;28;20515;-45
2022/09/26 12:57:52;;;;;;;8.10;7.70;;;16.30;24.30;;;;;;4952003;28;21004;-44
2022/09/26 13:00:22;;;;;;;7.70;7.50;;;16.20;24.40;;;;;;4991149;28;20412;-41
2022/09/26 13:03:37;;;;;;;7.30;7.00;;;16.20;24.00;;;;;;4991059;28;20417;-50
2022/09/26 13:06:25;;;;;;;7.70;7.43;;;16.10;23.00;;;;;;4937601;28;20471;-51
2022/09/26 13:08:57;;;;;;;8.00;7.80;;;16.10;22.70;;;;;;5025562;28;20431;-50
2022/09/26 13:11:43;;;;;;;8.00;7.80;;;16.10;22.70;;;;;;4992906;28;20901;-49
2022/09/26 13:14:38;;;;;;;7.83;7.63;;;16.10;22.40;;;;;;4992114;28;20431;-49
2022/09/26 13:17:14;;;;;;;7.30;7.10;;;15.90;22.20;;;;;;4992897;28;20420;-50
2022/09/26 13:20:00;;;;;;;7.90;7.60;;;15.80;22.60;;;;;;4992703;28;20416;-47
2022/09/26 13:22:37;;;;;;;7.90;7.70;;;15.70;22.40;;;;;;4992380;28;20463;-48
2022/09/26 13:25:28;;;;;;;7.77;7.57;;;15.50;22.70;;;;;;4992845;28;20440;-49
2022/09/26 13:28:12;;;;;;;7.70;7.50;;;15.50;21.50;;;;;;4992507;28;20420;-46